Time;durP1;ratioP1;P1;durP2;ratioP2;P2;SDS_P1;SDS_P2;PMS_P1;PMS_P2;Temp;Humidity;BMP_temperature;BMP_pressure;BME280_temperature;BME280_humidity;BME280_pressure;Samples;Min_cycle;Max_cycle;Signal;HPM_P1;HPM_P2
2022/02/15 00:00:26;;;;;;;0.50;0.50;;;7.70;99.90;;;;;;4972547;28;20214;-72
2022/02/15 00:02:52;;;;;;;0.70;0.53;;;7.60;99.90;;;;;;4972296;28;20249;-71
2022/02/15 00:05:17;;;;;;;1.23;0.60;;;7.60;99.90;;;;;;4972313;28;20222;-72
2022/02/15 00:07:43;;;;;;;1.03;0.70;;;7.60;99.90;;;;;;4972190;28;20264;-73
2022/02/15 00:10:10;;;;;;;0.60;0.60;;;7.60;99.90;;;;;;4972434;28;20209;-72
2022/02/15 00:12:37;;;;;;;0.70;0.70;;;7.60;99.90;;;;;;4971782;28;20200;-73
2022/02/15 00:15:05;;;;;;;1.10;0.90;;;7.60;99.90;;;;;;4972001;28;20471;-73
2022/02/15 00:17:31;;;;;;;0.73;0.50;;;7.60;99.90;;;;;;4972065;28;20810;-72
2022/02/15 00:19:56;;;;;;;0.53;0.53;;;7.50;99.90;;;;;;4972153;28;20424;-72
2022/02/15 00:22:22;;;;;;;1.17;0.57;;;7.50;99.90;;;;;;4972482;28;20206;-72
2022/02/15 00:24:47;;;;;;;1.13;0.90;;;7.50;99.90;;;;;;4970929;28;20185;-72
2022/02/15 00:27:13;;;;;;;0.80;0.80;;;7.50;99.90;;;;;;4972162;28;20198;-72
2022/02/15 00:29:38;;;;;;;0.50;0.50;;;7.50;99.90;;;;;;4972553;28;20532;-72
2022/02/15 00:32:05;;;;;;;1.90;0.70;;;7.50;99.90;;;;;;4972497;28;20264;-72
2022/02/15 00:34:33;;;;;;;0.53;0.53;;;7.50;99.90;;;;;;4972280;28;20584;-72
2022/02/15 00:36:59;;;;;;;0.50;0.50;;;7.40;99.90;;;;;;4972583;28;20487;-74
2022/02/15 00:39:25;;;;;;;1.33;0.60;;;7.40;99.90;;;;;;4971342;28;21296;-72
2022/02/15 00:41:50;;;;;;;0.70;0.70;;;7.40;99.90;;;;;;4974042;28;20448;-73
2022/02/15 00:44:16;;;;;;;1.33;0.60;;;7.50;99.90;;;;;;4974524;28;20430;-72
2022/02/15 00:46:42;;;;;;;0.53;0.53;;;7.50;99.90;;;;;;4976565;28;20236;-72
2022/02/15 00:49:07;;;;;;;0.60;0.50;;;7.50;99.90;;;;;;4976353;28;20179;-72
2022/02/15 00:51:32;;;;;;;1.03;0.93;;;7.50;99.90;;;;;;4975405;28;20213;-72
2022/02/15 00:53:58;;;;;;;0.60;0.60;;;7.40;99.90;;;;;;4976281;28;20178;-72
2022/02/15 00:56:24;;;;;;;0.60;0.60;;;7.40;99.90;;;;;;4976586;28;20201;-73
2022/02/15 00:58:50;;;;;;;0.60;0.60;;;7.40;99.90;;;;;;4976377;28;20834;-72
2022/02/15 05:31:20;;;;;;;1.77;0.80;;;6.90;99.90;;;;;;5719632;23;20502;-70
2022/02/15 05:33:45;;;;;;;3.07;1.10;;;6.90;99.90;;;;;;4988895;28;20444;-74
2022/02/15 05:36:12;;;;;;;1.00;0.83;;;7.00;99.90;;;;;;4994384;28;20247;-72
2022/02/15 05:38:38;;;;;;;2.40;0.90;;;7.00;99.90;;;;;;4995210;28;20176;-73
2022/02/15 05:41:04;;;;;;;2.20;1.20;;;6.90;99.90;;;;;;4994708;28;20433;-73
2022/02/15 05:43:29;;;;;;;4.23;1.00;;;6.90;99.90;;;;;;4994949;28;20191;-72
2022/02/15 05:45:54;;;;;;;2.10;0.70;;;6.90;99.90;;;;;;4994904;28;20268;-72
2022/02/15 05:48:20;;;;;;;1.07;0.80;;;6.90;99.90;;;;;;4994641;28;20627;-73
2022/02/15 05:50:52;;;;;;;0.80;0.73;;;6.90;99.90;;;;;;4994702;28;20209;-72
2022/02/15 05:53:20;;;;;;;2.40;0.80;;;6.90;99.90;;;;;;4994549;28;20728;-72
2022/02/15 05:55:45;;;;;;;2.80;1.00;;;6.90;99.90;;;;;;4983952;28;20424;-72
2022/02/15 05:58:11;;;;;;;2.57;1.20;;;6.90;99.90;;;;;;4972810;28;20420;-73
2022/02/15 06:00:36;;;;;;;2.00;1.00;;;6.90;99.90;;;;;;4966774;28;20195;-72
2022/02/15 06:04:09;;;;;;;2.27;0.80;;;6.90;99.90;;;;;;4974042;28;20184;-73
2022/02/15 06:05:47;;;;;;;1.63;0.90;;;6.90;99.90;;;;;;4975168;28;20190;-73
2022/02/15 06:08:13;;;;;;;1.20;0.70;;;6.90;99.90;;;;;;4975259;28;20468;-74
2022/02/15 06:10:39;;;;;;;2.60;0.93;;;6.90;99.90;;;;;;4975339;28;20653;-72
2022/02/15 06:13:04;;;;;;;3.20;1.50;;;6.90;99.90;;;;;;4974672;28;20217;-73
2022/02/15 06:15:29;;;;;;;1.70;0.90;;;6.90;99.90;;;;;;4975381;28;20249;-73
2022/02/15 06:17:55;;;;;;;0.70;0.70;;;6.90;99.90;;;;;;4975150;28;20261;-72
2022/02/15 06:20:21;;;;;;;0.70;0.70;;;6.90;99.90;;;;;;4974863;28;20282;-73
2022/02/15 06:22:46;;;;;;;1.00;0.70;;;6.90;99.90;;;;;;4970834;28;20749;-72
2022/02/15 06:25:11;;;;;;;4.80;1.27;;;6.90;99.90;;;;;;4973851;28;20199;-71
2022/02/15 06:27:37;;;;;;;0.77;0.70;;;7.00;99.90;;;;;;4972008;28;20645;-73
2022/02/15 06:30:03;;;;;;;0.70;0.60;;;7.00;99.90;;;;;;4966400;28;20642;-70
2022/02/15 06:32:28;;;;;;;0.87;0.73;;;7.10;99.90;;;;;;4972758;28;20221;-72
2022/02/15 06:34:54;;;;;;;2.70;1.10;;;7.10;99.90;;;;;;4972874;28;20416;-73
2022/02/15 06:37:19;;;;;;;2.20;0.80;;;7.10;99.90;;;;;;4973284;28;20367;-72
2022/02/15 06:39:46;;;;;;;1.63;0.77;;;7.10;99.90;;;;;;4972747;28;20182;-73
2022/02/15 06:42:12;;;;;;;4.83;1.00;;;7.10;99.90;;;;;;4973106;28;20689;-72
2022/02/15 06:44:37;;;;;;;0.80;0.80;;;7.10;99.90;;;;;;4971961;28;20429;-72
2022/02/15 06:47:03;;;;;;;1.93;1.00;;;7.10;99.90;;;;;;4973397;28;20240;-72
2022/02/15 06:49:29;;;;;;;1.23;0.77;;;7.10;99.90;;;;;;4974411;28;20216;-72
2022/02/15 06:51:54;;;;;;;0.90;0.90;;;7.10;99.90;;;;;;4974383;28;20572;-72
2022/02/15 06:54:20;;;;;;;1.17;1.07;;;7.10;99.90;;;;;;4974016;28;20182;-73
2022/02/15 06:56:45;;;;;;;1.17;0.70;;;7.10;99.90;;;;;;4974746;28;20256;-71
2022/02/15 06:59:13;;;;;;;4.70;0.90;;;7.00;99.90;;;;;;4974375;28;20566;-72
2022/02/15 07:01:40;;;;;;;1.00;0.90;;;7.00;99.90;;;;;;4974421;28;20204;-71
2022/02/15 07:04:07;;;;;;;0.60;0.60;;;7.00;99.90;;;;;;4974038;28;20793;-72
2022/02/15 07:06:32;;;;;;;4.73;0.73;;;6.90;99.90;;;;;;4973811;28;20429;-71
2022/02/15 07:08:58;;;;;;;1.67;0.60;;;6.90;99.90;;;;;;4973993;28;20436;-71
2022/02/15 07:11:24;;;;;;;0.97;0.80;;;6.80;99.90;;;;;;4973929;28;20200;-72
2022/02/15 07:13:50;;;;;;;1.23;0.80;;;6.80;99.90;;;;;;4973887;28;20228;-71
2022/02/15 07:16:17;;;;;;;2.80;1.00;;;6.70;99.90;;;;;;4974408;28;20191;-70
2022/02/15 07:18:43;;;;;;;1.53;0.90;;;6.70;99.90;;;;;;4973444;28;21026;-70
2022/02/15 07:21:09;;;;;;;1.90;1.20;;;6.70;99.90;;;;;;4973474;28;20528;-71
2022/02/15 07:23:34;;;;;;;0.70;0.70;;;6.80;99.90;;;;;;4973683;28;20192;-71
2022/02/15 07:26:00;;;;;;;0.80;0.60;;;6.80;99.90;;;;;;4973603;28;20924;-73
2022/02/15 07:28:25;;;;;;;1.67;0.63;;;6.80;99.90;;;;;;4973711;28;20438;-71
2022/02/15 07:30:51;;;;;;;1.17;0.63;;;6.80;99.90;;;;;;4973524;28;20209;-71
2022/02/15 07:33:16;;;;;;;2.20;0.70;;;6.80;99.90;;;;;;4960605;28;20232;-71
2022/02/15 07:35:43;;;;;;;0.60;0.60;;;6.80;99.90;;;;;;4961668;28;20307;-71
2022/02/15 07:38:08;;;;;;;1.33;0.73;;;6.80;99.90;;;;;;4972967;28;20740;-71
2022/02/15 07:40:34;;;;;;;0.90;0.60;;;6.90;99.90;;;;;;4972925;28;20564;-71
2022/02/15 07:43:00;;;;;;;1.17;0.50;;;6.90;99.90;;;;;;4972500;28;20416;-70
2022/02/15 07:45:25;;;;;;;1.63;0.50;;;7.00;99.90;;;;;;4972557;28;20232;-71
2022/02/15 07:47:52;;;;;;;0.87;0.63;;;7.00;99.90;;;;;;4972836;28;20474;-71
2022/02/15 07:50:20;;;;;;;0.50;0.50;;;7.10;99.90;;;;;;4971667;28;20220;-71
2022/02/15 07:52:57;;;;;;;0.50;0.50;;;7.10;99.90;;;;;;4972613;28;20942;-70
2022/02/15 07:55:23;;;;;;;0.47;0.40;;;7.10;99.90;;;;;;4972731;28;20498;-71
2022/02/15 07:57:48;;;;;;;0.50;0.50;;;7.00;99.90;;;;;;4972975;28;20477;-72
2022/02/15 08:00:18;;;;;;;1.37;0.70;;;7.10;99.90;;;;;;4972451;28;20214;-73
2022/02/15 08:02:48;;;;;;;0.70;0.50;;;7.10;99.90;;;;;;4972800;28;20673;-70
2022/02/15 08:05:14;;;;;;;0.57;0.57;;;7.10;99.90;;;;;;4971679;28;20459;-71
2022/02/15 08:07:44;;;;;;;0.97;0.67;;;7.20;99.90;;;;;;4972756;28;20562;-71
2022/02/15 08:10:09;;;;;;;0.50;0.50;;;7.20;99.90;;;;;;4972164;28;20224;-71
2022/02/15 08:12:36;;;;;;;0.60;0.60;;;7.30;99.90;;;;;;4972258;28;20450;-71
2022/02/15 08:15:02;;;;;;;1.47;0.67;;;7.30;99.90;;;;;;4970469;28;20164;-70
2022/02/15 08:17:28;;;;;;;0.50;0.50;;;7.40;99.90;;;;;;4972582;28;20426;-71
2022/02/15 08:19:53;;;;;;;3.07;1.03;;;7.40;99.90;;;;;;4970840;28;20429;-73
2022/02/15 08:22:20;;;;;;;1.67;0.60;;;7.50;99.90;;;;;;4972436;28;20206;-73
2022/02/15 08:24:46;;;;;;;0.73;0.50;;;7.60;99.90;;;;;;4972606;28;20262;-70
2022/02/15 08:27:11;;;;;;;1.10;1.00;;;7.70;99.90;;;;;;4972370;28;20559;-69
2022/02/15 08:29:37;;;;;;;0.70;0.60;;;7.90;99.90;;;;;;4972524;28;20636;-71
2022/02/15 08:32:02;;;;;;;0.70;0.50;;;7.80;99.90;;;;;;4972001;28;20210;-70
2022/02/15 08:34:28;;;;;;;0.70;0.70;;;7.80;99.90;;;;;;4972307;28;20729;-71
2022/02/15 08:36:53;;;;;;;0.63;0.63;;;7.90;99.90;;;;;;4972787;28;20181;-70
2022/02/15 08:39:19;;;;;;;3.03;0.80;;;7.80;99.90;;;;;;4972029;28;20677;-71
2022/02/15 08:41:44;;;;;;;0.60;0.60;;;7.80;99.90;;;;;;4971774;28;20206;-72
2022/02/15 08:44:10;;;;;;;1.87;0.77;;;7.80;99.90;;;;;;4972128;28;20601;-70
2022/02/15 08:46:35;;;;;;;1.77;0.90;;;7.90;99.90;;;;;;4972426;28;20176;-70
2022/02/15 08:49:01;;;;;;;0.70;0.70;;;7.90;99.90;;;;;;4972119;28;20226;-71
2022/02/15 08:51:27;;;;;;;0.93;0.60;;;8.10;99.90;;;;;;4971783;28;20679;-71
2022/02/15 08:53:52;;;;;;;1.00;1.00;;;8.10;99.90;;;;;;4972126;28;20177;-70
2022/02/15 08:56:20;;;;;;;0.90;0.90;;;8.20;99.90;;;;;;4972195;28;20702;-71
2022/02/15 08:58:47;;;;;;;0.90;0.77;;;8.20;99.90;;;;;;4972473;28;20182;-71
2022/02/15 09:01:13;;;;;;;0.83;0.70;;;8.20;99.90;;;;;;4971951;28;20438;-71
2022/02/15 09:03:38;;;;;;;0.60;0.60;;;8.30;99.90;;;;;;4975276;28;20499;-71
2022/02/15 09:06:04;;;;;;;1.30;0.67;;;8.50;99.90;;;;;;4976057;28;20449;-71
2022/02/15 09:08:30;;;;;;;1.90;1.33;;;8.80;99.90;;;;;;4976287;28;20217;-70
2022/02/15 09:10:56;;;;;;;0.70;0.63;;;9.20;99.90;;;;;;4975740;28;20187;-70
2022/02/15 09:13:21;;;;;;;0.80;0.80;;;9.60;99.90;;;;;;4975654;28;20404;-71
2022/02/15 09:15:47;;;;;;;2.00;1.20;;;9.80;99.90;;;;;;4976143;28;20179;-70
2022/02/15 09:18:12;;;;;;;1.17;0.93;;;9.50;99.90;;;;;;4975902;28;20647;-71
2022/02/15 09:20:38;;;;;;;0.80;0.70;;;9.40;99.90;;;;;;4975739;28;20285;-71
2022/02/15 09:23:05;;;;;;;2.87;1.10;;;9.50;99.90;;;;;;4975467;28;20200;-71
2022/02/15 09:25:31;;;;;;;1.10;1.00;;;9.70;99.90;;;;;;4975941;28;20186;-71
2022/02/15 09:27:58;;;;;;;1.47;1.10;;;9.70;99.90;;;;;;4975719;28;20818;-71
2022/02/15 09:30:24;;;;;;;1.50;1.40;;;9.90;99.90;;;;;;4975303;28;20515;-72
2022/02/15 09:32:50;;;;;;;1.80;1.70;;;10.00;99.90;;;;;;4974979;28;20462;-71
2022/02/15 09:35:15;;;;;;;1.03;1.03;;;10.20;99.90;;;;;;4975616;28;20420;-69
2022/02/15 09:37:42;;;;;;;0.93;0.93;;;10.50;99.90;;;;;;4975228;28;20206;-70
2022/02/15 09:40:09;;;;;;;1.80;1.57;;;10.60;99.90;;;;;;4975153;28;20250;-70
2022/02/15 09:42:35;;;;;;;1.67;1.30;;;11.00;99.90;;;;;;4975067;28;21033;-71
2022/02/15 09:45:01;;;;;;;1.90;1.77;;;11.10;99.90;;;;;;4975184;28;20502;-70
2022/02/15 09:47:27;;;;;;;6.10;1.33;;;11.50;99.90;;;;;;4975325;28;20570;-72
2022/02/15 09:49:53;;;;;;;2.70;2.50;;;12.00;99.90;;;;;;4975184;28;20183;-72
2022/02/15 09:52:24;;;;;;;1.87;1.70;;;12.90;99.90;;;;;;4974870;28;20431;-72
2022/02/15 09:54:52;;;;;;;2.57;1.57;;;13.10;99.90;;;;;;4975099;28;20543;-71
2022/02/15 09:57:22;;;;;;;1.40;1.30;;;12.70;99.90;;;;;;4975261;28;20430;-72
2022/02/15 09:59:50;;;;;;;1.20;1.00;;;12.40;99.90;;;;;;4975003;28;20439;-69
2022/02/15 10:02:20;;;;;;;1.37;1.27;;;12.00;99.90;;;;;;4974593;28;20435;-71
2022/02/15 10:04:52;;;;;;;2.33;1.60;;;12.10;99.90;;;;;;4975043;28;20411;-71
2022/02/15 10:07:18;;;;;;;1.40;1.30;;;12.40;99.90;;;;;;4975013;28;20555;-70
2022/02/15 10:09:48;;;;;;;2.63;2.23;;;12.50;99.90;;;;;;4975173;28;20412;-70
2022/02/15 10:12:16;;;;;;;4.03;1.57;;;12.30;99.90;;;;;;4973143;28;21066;-71
2022/02/15 10:14:46;;;;;;;2.50;1.67;;;12.20;99.90;;;;;;4973955;28;20443;-71
2022/02/15 10:17:14;;;;;;;3.83;2.17;;;12.10;99.90;;;;;;4974656;28;20462;-70
2022/02/15 10:19:41;;;;;;;1.10;1.00;;;11.80;99.90;;;;;;4974699;28;20419;-70
2022/02/15 10:22:06;;;;;;;3.87;1.60;;;11.20;99.90;;;;;;4973970;28;20442;-70
2022/02/15 10:24:34;;;;;;;5.67;1.80;;;10.90;99.90;;;;;;4974637;28;20994;-71
2022/02/15 10:27:04;;;;;;;3.03;1.37;;;10.30;99.90;;;;;;4974517;28;20245;-71
2022/02/15 10:29:32;;;;;;;3.27;1.30;;;10.10;99.90;;;;;;4974483;28;20417;-71
2022/02/15 10:32:03;;;;;;;1.40;1.30;;;9.80;99.90;;;;;;4973832;28;20848;-71
2022/02/15 10:34:29;;;;;;;1.03;1.03;;;9.70;99.90;;;;;;4974387;28;20425;-71
2022/02/15 10:37:04;;;;;;;3.30;1.90;;;9.60;99.90;;;;;;4974667;28;20458;-71
2022/02/15 10:39:44;;;;;;;9.33;1.97;;;9.50;99.90;;;;;;4974319;28;20477;-71
2022/02/15 10:42:12;;;;;;;3.57;2.23;;;9.50;99.90;;;;;;4973901;28;20439;-71
2022/02/15 10:45:08;;;;;;;2.53;1.27;;;9.50;99.90;;;;;;4972177;28;20443;-72
2022/02/15 10:47:36;;;;;;;3.20;2.90;;;9.40;99.90;;;;;;4960459;28;20569;-71
2022/02/15 10:50:06;;;;;;;2.10;2.00;;;9.30;99.90;;;;;;4972501;28;20461;-72
2022/02/15 10:52:31;;;;;;;2.80;2.17;;;9.30;99.90;;;;;;4973628;28;20435;-71
2022/02/15 10:54:58;;;;;;;4.83;1.73;;;9.30;99.90;;;;;;4973903;28;20489;-70
2022/02/15 10:57:24;;;;;;;5.13;1.30;;;9.20;99.90;;;;;;4974077;28;20193;-72
2022/02/15 10:59:54;;;;;;;1.13;1.03;;;9.20;99.90;;;;;;4974001;28;20502;-71
2022/02/15 11:02:26;;;;;;;1.93;1.73;;;9.10;99.90;;;;;;4972503;28;20502;-71
2022/02/15 11:04:53;;;;;;;1.90;1.80;;;9.10;99.90;;;;;;4973897;28;20427;-71
2022/02/15 11:07:23;;;;;;;3.00;1.37;;;9.00;99.90;;;;;;4974048;28;20538;-71
2022/02/15 11:10:08;;;;;;;1.20;1.10;;;9.00;99.90;;;;;;4973976;28;20920;-68
2022/02/15 11:12:44;;;;;;;2.23;1.43;;;8.90;99.90;;;;;;4973438;28;20486;-69
2022/02/15 11:15:11;;;;;;;3.07;1.70;;;8.80;99.90;;;;;;4974013;28;20977;-69
2022/02/15 11:17:50;;;;;;;1.90;1.37;;;8.80;99.90;;;;;;4974170;28;20903;-70
2022/02/15 11:20:18;;;;;;;2.23;1.40;;;8.90;99.90;;;;;;4974402;28;20465;-70
2022/02/15 11:22:47;;;;;;;2.67;1.00;;;8.90;99.90;;;;;;4973398;28;20446;-70
2022/02/15 11:25:12;;;;;;;2.17;1.20;;;8.80;99.90;;;;;;4971740;28;20488;-70
2022/02/15 11:27:38;;;;;;;4.13;1.30;;;8.80;99.90;;;;;;4972830;28;20462;-70
2022/02/15 11:30:12;;;;;;;1.40;1.30;;;8.70;99.90;;;;;;4973503;28;20175;-70
2022/02/15 11:32:42;;;;;;;2.67;1.10;;;8.70;99.90;;;;;;4972825;28;20226;-71
2022/02/15 11:35:10;;;;;;;5.03;1.43;;;8.50;99.90;;;;;;4973324;28;20514;-70
2022/02/15 11:37:36;;;;;;;2.90;1.40;;;8.60;99.90;;;;;;4973549;28;20427;-71
2022/02/15 11:40:10;;;;;;;1.87;1.30;;;8.50;99.90;;;;;;4973157;28;20480;-71
2022/02/15 11:42:50;;;;;;;2.07;1.40;;;8.50;99.90;;;;;;4972782;28;20824;-69
2022/02/15 11:45:17;;;;;;;2.57;1.03;;;8.60;99.90;;;;;;4973291;28;21011;-70
2022/02/15 11:47:46;;;;;;;4.10;1.23;;;8.60;99.90;;;;;;4974031;28;20835;-70
2022/02/15 11:50:14;;;;;;;2.60;1.37;;;8.50;99.90;;;;;;4972889;28;20934;-71
2022/02/15 11:52:41;;;;;;;2.50;1.43;;;8.50;99.90;;;;;;4972721;28;20978;-70
2022/02/15 11:55:10;;;;;;;3.27;2.97;;;8.50;99.90;;;;;;4972820;28;20423;-71
2022/02/15 11:57:35;;;;;;;1.63;1.30;;;8.50;99.90;;;;;;4972132;28;20942;-70
2022/02/15 12:00:02;;;;;;;5.40;3.50;;;8.50;99.90;;;;;;4972756;28;20420;-70
2022/02/15 12:02:27;;;;;;;1.90;1.80;;;8.60;99.90;;;;;;4972426;28;20205;-71
2022/02/15 12:04:56;;;;;;;11.63;1.57;;;8.70;99.90;;;;;;4972657;28;20434;-70
2022/02/15 12:07:29;;;;;;;2.83;1.60;;;8.70;99.90;;;;;;4966797;28;20708;-70
2022/02/15 12:09:56;;;;;;;3.07;1.63;;;8.80;99.90;;;;;;4961760;28;20430;-69
2022/02/15 12:12:44;;;;;;;3.03;1.50;;;8.80;99.90;;;;;;4962962;28;20438;-71
2022/02/15 12:15:10;;;;;;;4.13;1.40;;;8.90;99.90;;;;;;4955946;28;20435;-70
2022/02/15 12:17:42;;;;;;;3.17;1.60;;;9.10;99.90;;;;;;4956159;28;20786;-70
2022/02/15 12:20:09;;;;;;;1.90;1.70;;;9.10;99.90;;;;;;4956874;28;20763;-72
2022/02/15 12:22:40;;;;;;;3.30;1.43;;;9.20;99.90;;;;;;4952053;28;20526;-71
2022/02/15 12:25:07;;;;;;;3.37;1.70;;;9.30;99.90;;;;;;4955995;28;20439;-71
2022/02/15 12:27:32;;;;;;;1.87;1.30;;;9.40;99.90;;;;;;4961208;28;20458;-71
2022/02/15 12:29:58;;;;;;;1.23;1.13;;;9.60;99.90;;;;;;4963861;28;20418;-69
2022/02/15 12:32:25;;;;;;;7.33;1.97;;;9.50;99.90;;;;;;4962001;28;20223;-68
2022/02/15 12:34:52;;;;;;;4.40;2.73;;;9.40;99.90;;;;;;4961769;28;20178;-69
2022/02/15 12:37:24;;;;;;;2.40;2.20;;;9.30;99.90;;;;;;4963453;28;20473;-69
2022/02/15 12:39:55;;;;;;;2.13;1.93;;;9.00;99.90;;;;;;4963126;28;20449;-70
2022/02/15 12:42:22;;;;;;;2.03;1.90;;;8.90;99.90;;;;;;4961138;28;20444;-69
2022/02/15 12:45:03;;;;;;;2.80;1.33;;;8.90;99.90;;;;;;4962209;28;20788;-70
2022/02/15 12:47:31;;;;;;;5.73;1.80;;;8.90;99.90;;;;;;4962547;28;20493;-69
2022/02/15 12:49:58;;;;;;;2.03;1.40;;;8.90;99.90;;;;;;4961289;28;20427;-70
2022/02/15 12:52:27;;;;;;;4.10;1.40;;;8.80;99.90;;;;;;4962577;28;20543;-70
2022/02/15 12:54:54;;;;;;;1.60;1.50;;;9.00;99.90;;;;;;4962759;28;20478;-70
2022/02/15 12:57:22;;;;;;;3.70;1.47;;;9.00;99.90;;;;;;4961472;28;20427;-71
2022/02/15 12:59:56;;;;;;;2.17;1.90;;;9.10;99.90;;;;;;4962687;28;20467;-70
2022/02/15 13:02:23;;;;;;;2.93;2.20;;;9.20;99.90;;;;;;4969454;28;20447;-70
2022/02/15 13:04:49;;;;;;;6.07;1.93;;;9.30;99.90;;;;;;4972080;28;20788;-70
2022/02/15 13:07:18;;;;;;;2.10;1.90;;;9.30;99.90;;;;;;4972585;28;20469;-70
2022/02/15 13:09:57;;;;;;;1.93;1.67;;;9.30;99.90;;;;;;4972167;28;20422;-69
2022/02/15 13:12:26;;;;;;;1.50;1.37;;;9.20;99.90;;;;;;4971854;28;20442;-71
2022/02/15 13:14:56;;;;;;;3.50;1.70;;;9.20;99.90;;;;;;4971931;28;20510;-70
2022/02/15 13:17:25;;;;;;;1.77;1.20;;;9.20;99.90;;;;;;4972070;28;20793;-69
2022/02/15 13:19:51;;;;;;;1.20;1.10;;;9.20;99.90;;;;;;4971967;28;20535;-69
2022/02/15 13:22:22;;;;;;;2.53;1.87;;;9.10;99.90;;;;;;4971669;28;20436;-70
2022/02/15 13:24:59;;;;;;;5.70;2.53;;;8.90;99.90;;;;;;4971508;28;20511;-70
2022/02/15 13:27:27;;;;;;;2.20;1.50;;;8.60;99.90;;;;;;4971970;28;20476;-70
2022/02/15 13:29:53;;;;;;;1.87;1.77;;;8.30;99.90;;;;;;4971912;28;20384;-69
2022/02/15 13:32:28;;;;;;;1.33;1.10;;;8.00;99.90;;;;;;4970218;28;20870;-69
2022/02/15 13:34:53;;;;;;;1.20;1.00;;;7.80;99.90;;;;;;4971459;28;20956;-68
2022/02/15 13:37:20;;;;;;;1.33;0.80;;;7.70;99.90;;;;;;4971881;28;20424;-70
2022/02/15 13:39:46;;;;;;;1.43;1.03;;;7.40;99.90;;;;;;4971884;28;20212;-70
2022/02/15 13:42:12;;;;;;;1.30;1.00;;;7.40;99.90;;;;;;4971285;28;20483;-70
2022/02/15 13:44:41;;;;;;;2.67;1.33;;;7.40;99.90;;;;;;4971594;28;20231;-69
2022/02/15 13:47:07;;;;;;;1.00;0.90;;;7.40;99.90;;;;;;4971646;28;20822;-70
2022/02/15 13:49:32;;;;;;;1.90;1.07;;;7.40;99.90;;;;;;4972287;28;20425;-73
2022/02/15 13:51:58;;;;;;;0.87;0.87;;;7.40;99.90;;;;;;4974628;28;20202;-70
2022/02/15 13:54:23;;;;;;;0.97;0.83;;;7.50;99.90;;;;;;4975264;28;20183;-72
2022/02/15 13:56:50;;;;;;;1.67;1.03;;;7.50;99.90;;;;;;4975287;28;20188;-69
2022/02/15 13:59:16;;;;;;;1.00;0.90;;;7.60;99.90;;;;;;4960755;28;20219;-70
2022/02/15 14:01:42;;;;;;;1.80;1.43;;;7.60;99.90;;;;;;4963442;28;20454;-70
2022/02/15 14:04:09;;;;;;;1.50;1.33;;;7.70;99.90;;;;;;4974202;28;20233;-70
2022/02/15 14:06:36;;;;;;;5.57;1.43;;;7.90;99.90;;;;;;4974735;28;20470;-69
2022/02/15 14:09:02;;;;;;;3.63;1.60;;;8.20;99.90;;;;;;4974361;28;20479;-69
2022/02/15 14:11:27;;;;;;;2.17;1.37;;;8.50;99.90;;;;;;4973979;28;20517;-69
2022/02/15 14:13:53;;;;;;;1.67;1.57;;;8.60;99.90;;;;;;4973977;28;20447;-69
2022/02/15 14:16:19;;;;;;;6.83;2.00;;;8.60;99.90;;;;;;4974322;28;20218;-69
2022/02/15 14:18:45;;;;;;;3.07;1.60;;;8.50;99.90;;;;;;4974562;28;20199;-68
2022/02/15 14:21:13;;;;;;;1.83;1.50;;;8.50;99.90;;;;;;4974202;28;20451;-68
2022/02/15 14:23:39;;;;;;;3.50;1.63;;;8.50;99.90;;;;;;4974254;28;20438;-70
2022/02/15 14:26:06;;;;;;;1.53;1.37;;;8.40;99.90;;;;;;4974110;28;20524;-70
2022/02/15 14:28:31;;;;;;;5.90;1.50;;;8.20;99.90;;;;;;4974523;28;20475;-70
2022/02/15 14:30:57;;;;;;;1.97;1.67;;;7.90;99.90;;;;;;4973164;28;20625;-70
2022/02/15 14:33:23;;;;;;;1.27;1.17;;;7.70;99.90;;;;;;4973786;28;20209;-69
2022/02/15 14:35:49;;;;;;;1.40;1.20;;;7.60;99.90;;;;;;4973923;28;20458;-71
2022/02/15 14:38:16;;;;;;;1.33;1.20;;;7.50;99.90;;;;;;4974237;28;20703;-69
2022/02/15 14:40:42;;;;;;;1.87;1.20;;;7.40;99.90;;;;;;4973540;28;20683;-70
2022/02/15 14:43:08;;;;;;;1.27;1.20;;;7.30;99.90;;;;;;4973294;28;20569;-70
2022/02/15 14:45:33;;;;;;;1.27;1.17;;;7.40;99.90;;;;;;4969780;28;20295;-68
2022/02/15 14:48:00;;;;;;;2.97;1.17;;;7.50;99.90;;;;;;4966948;28;20712;-70
2022/02/15 14:50:30;;;;;;;1.50;1.40;;;7.50;99.90;;;;;;4973432;28;20222;-70
2022/02/15 14:52:56;;;;;;;0.90;0.90;;;7.50;99.90;;;;;;4972050;28;20944;-70
2022/02/15 14:55:25;;;;;;;1.13;1.03;;;7.70;99.90;;;;;;4966748;28;20453;-69
2022/02/15 14:57:51;;;;;;;1.70;1.10;;;7.80;99.90;;;;;;4972968;28;20488;-70
2022/02/15 15:00:17;;;;;;;3.07;1.00;;;7.90;99.90;;;;;;4973184;28;20439;-68
2022/02/15 15:02:42;;;;;;;1.23;1.13;;;7.90;99.90;;;;;;4973048;28;20463;-68
2022/02/15 15:05:08;;;;;;;1.83;1.70;;;8.00;99.90;;;;;;4973440;28;20206;-69
2022/02/15 15:07:36;;;;;;;3.20;1.53;;;8.20;99.90;;;;;;4973618;28;20517;-68
2022/02/15 15:10:03;;;;;;;1.67;1.30;;;8.20;99.90;;;;;;4973462;28;20485;-69
2022/02/15 15:12:28;;;;;;;1.40;1.30;;;8.20;99.90;;;;;;4972996;28;20505;-71
2022/02/15 15:14:54;;;;;;;1.77;1.33;;;8.20;99.90;;;;;;4965327;28;20492;-69
2022/02/15 15:17:22;;;;;;;1.40;1.30;;;8.10;99.90;;;;;;4963220;28;20637;-70
2022/02/15 15:19:47;;;;;;;2.80;1.40;;;8.20;99.90;;;;;;4964971;28;20217;-69
2022/02/15 15:22:17;;;;;;;1.70;1.30;;;8.10;99.90;;;;;;4967682;28;20990;-71
2022/02/15 15:24:45;;;;;;;1.67;1.57;;;8.00;99.90;;;;;;4965792;28;20691;-71
2022/02/15 15:27:14;;;;;;;2.90;1.73;;;7.90;99.90;;;;;;4964254;28;20490;-71
2022/02/15 15:29:40;;;;;;;2.10;1.27;;;7.80;99.90;;;;;;4962334;28;20480;-71
2022/02/15 15:32:06;;;;;;;3.93;2.77;;;7.80;99.90;;;;;;4966451;28;20477;-71
2022/02/15 15:34:31;;;;;;;3.60;2.20;;;7.70;99.90;;;;;;4973158;28;20440;-71
2022/02/15 15:36:57;;;;;;;1.77;1.60;;;7.70;99.90;;;;;;4972824;28;20456;-72
2022/02/15 15:39:23;;;;;;;3.70;1.30;;;7.70;99.90;;;;;;4973059;28;20205;-70
2022/02/15 15:41:50;;;;;;;4.27;1.50;;;7.80;99.90;;;;;;4972694;28;20687;-70
2022/02/15 15:44:17;;;;;;;5.60;1.10;;;7.90;99.90;;;;;;4959495;28;20241;-71
2022/02/15 15:46:42;;;;;;;2.40;1.50;;;7.90;99.90;;;;;;4935201;29;20473;-71
2022/02/15 15:49:08;;;;;;;1.70;1.30;;;8.10;99.90;;;;;;4951818;29;20467;-72
2022/02/15 15:51:34;;;;;;;5.53;2.07;;;8.10;99.90;;;;;;4953486;28;20223;-70
2022/02/15 15:54:00;;;;;;;1.50;1.40;;;8.10;99.90;;;;;;4953439;29;20221;-71
2022/02/15 15:56:28;;;;;;;2.77;1.63;;;8.10;99.90;;;;;;4953291;28;20448;-71
2022/02/15 15:58:55;;;;;;;2.00;1.80;;;8.00;99.90;;;;;;4953792;29;20625;-70
2022/02/15 16:01:21;;;;;;;6.10;1.37;;;8.10;99.90;;;;;;4953020;28;20554;-71
2022/02/15 16:03:47;;;;;;;2.03;1.23;;;8.00;99.90;;;;;;4953218;29;20524;-71
2022/02/15 16:06:12;;;;;;;1.57;1.30;;;7.90;99.90;;;;;;4953144;28;20241;-70
2022/02/15 16:08:38;;;;;;;1.67;1.20;;;7.80;99.90;;;;;;4953800;29;20652;-70
2022/02/15 16:11:03;;;;;;;1.30;1.20;;;7.70;99.90;;;;;;4953379;28;20211;-71
2022/02/15 16:13:29;;;;;;;1.20;1.10;;;7.70;99.90;;;;;;4960222;28;20203;-70
2022/02/15 16:15:55;;;;;;;2.60;1.40;;;7.60;99.90;;;;;;4972716;28;20197;-71
2022/02/15 16:18:21;;;;;;;1.70;1.07;;;7.50;99.90;;;;;;4972419;28;20216;-70
2022/02/15 16:20:46;;;;;;;3.43;2.70;;;7.50;99.90;;;;;;4972482;28;20446;-70
2022/02/15 16:23:12;;;;;;;2.33;1.40;;;7.40;99.90;;;;;;4971918;28;20685;-70
2022/02/15 16:25:38;;;;;;;1.60;1.50;;;7.30;99.90;;;;;;4972511;28;20260;-69
2022/02/15 16:28:05;;;;;;;1.20;0.90;;;7.30;99.90;;;;;;4972250;28;20322;-71
2022/02/15 16:30:33;;;;;;;2.10;1.43;;;7.20;99.90;;;;;;4972375;28;20527;-70
2022/02/15 16:33:00;;;;;;;1.00;0.80;;;7.10;99.90;;;;;;4971734;28;20971;-70
2022/02/15 16:35:27;;;;;;;2.50;0.87;;;7.10;99.90;;;;;;4972504;28;20441;-71
2022/02/15 16:37:52;;;;;;;2.93;1.30;;;7.00;99.90;;;;;;4972021;28;20453;-70
2022/02/15 16:40:19;;;;;;;0.87;0.87;;;7.00;99.90;;;;;;4972107;28;20546;-70
2022/02/15 16:42:44;;;;;;;3.03;1.27;;;6.90;99.90;;;;;;4971727;28;20296;-70
2022/02/15 16:45:10;;;;;;;1.57;1.00;;;6.80;99.90;;;;;;4972079;28;20444;-69
2022/02/15 16:47:36;;;;;;;5.13;4.23;;;6.80;99.90;;;;;;4972104;28;20232;-71
2022/02/15 16:50:03;;;;;;;7.50;5.83;;;6.80;99.90;;;;;;4971863;28;20500;-70
2022/02/15 16:52:28;;;;;;;4.20;3.90;;;6.70;99.90;;;;;;4987670;28;20255;-70
2022/02/15 16:54:54;;;;;;;4.03;2.87;;;6.60;99.90;;;;;;4991405;28;20478;-70
2022/02/15 16:57:20;;;;;;;3.07;1.57;;;6.60;99.90;;;;;;4991147;28;20673;-72
2022/02/15 16:59:46;;;;;;;2.73;1.90;;;6.50;99.90;;;;;;4991467;28;20207;-70
2022/02/15 17:02:12;;;;;;;1.50;1.40;;;6.50;99.90;;;;;;4990902;28;20525;-70
2022/02/15 17:04:38;;;;;;;3.53;1.50;;;6.40;99.90;;;;;;4991530;28;20262;-70
2022/02/15 17:07:05;;;;;;;1.83;1.20;;;6.40;99.90;;;;;;4991308;28;20594;-69
2022/02/15 17:09:32;;;;;;;1.57;1.47;;;6.40;99.90;;;;;;4991703;28;20450;-73
2022/02/15 17:12:00;;;;;;;1.33;0.90;;;6.30;99.90;;;;;;4990823;28;20460;-72
2022/02/15 17:14:29;;;;;;;4.27;1.10;;;6.20;99.90;;;;;;4961032;28;20835;-72
2022/02/15 17:16:55;;;;;;;2.10;1.90;;;6.10;99.90;;;;;;4936405;29;20465;-74
2022/02/15 17:19:20;;;;;;;3.17;2.13;;;6.00;99.90;;;;;;4951484;29;21016;-72
2022/02/15 17:21:46;;;;;;;1.90;1.10;;;5.90;99.90;;;;;;4969392;28;20824;-72
2022/02/15 17:24:12;;;;;;;3.10;1.23;;;5.90;99.90;;;;;;4973111;28;20215;-72